createdAt,value
2018-04-13T00:02:28.286Z,13.20
2018-04-13T00:04:56.676Z,13.20
2018-04-13T00:07:25.278Z,13.10
2018-04-13T00:09:54.435Z,12.20
2018-04-13T00:12:22.794Z,12.20
2018-04-13T00:14:51.483Z,12.00
2018-04-13T00:17:19.861Z,12.10
2018-04-13T00:19:49.071Z,12.00
2018-04-13T00:22:17.466Z,12.10
2018-04-13T00:24:45.875Z,12.10
2018-04-13T00:27:14.618Z,12.20
2018-04-13T00:29:42.998Z,12.20
2018-04-13T00:32:11.467Z,12.10
2018-04-13T00:34:39.861Z,11.90
2018-04-13T00:37:08.254Z,11.60
2018-04-13T00:39:36.633Z,11.50
2018-04-13T00:42:05.021Z,11.50
2018-04-13T00:44:33.392Z,11.50
2018-04-13T00:47:02.493Z,11.70
2018-04-13T00:49:31.638Z,12.00
2018-04-13T00:52:00.042Z,12.00
2018-04-13T00:54:28.405Z,12.00
2018-04-13T00:56:57.555Z,11.60
2018-04-13T00:59:26.724Z,11.60
2018-04-13T01:01:55.274Z,11.60
2018-04-13T01:04:23.646Z,11.60
2018-04-13T01:06:52.002Z,11.70
2018-04-13T01:09:20.394Z,11.70
2018-04-13T01:11:49.242Z,11.80
2018-04-13T01:14:18.393Z,12.10
2018-04-13T01:16:46.813Z,12.10
2018-04-13T01:19:15.963Z,11.90
2018-04-13T01:21:44.334Z,11.90
2018-04-13T01:24:13.361Z,11.80
2018-04-13T01:26:41.738Z,11.80
2018-04-13T01:29:10.106Z,11.80
2018-04-13T01:31:38.508Z,11.80
2018-04-13T01:34:06.905Z,11.80
2018-04-13T01:36:36.058Z,11.60
2018-04-13T01:39:04.422Z,11.60
2018-04-13T01:41:32.836Z,11.70
2018-04-13T01:44:01.193Z,11.70
2018-04-13T01:46:29.913Z,11.80
2018-04-13T01:48:59.563Z,11.40
2018-04-13T01:51:27.966Z,11.40
2018-04-13T01:53:56.391Z,11.30
2018-04-13T01:56:25.571Z,11.50
2018-04-13T01:58:54.702Z,11.50
2018-04-13T02:01:23.073Z,11.50
2018-04-13T02:03:51.586Z,11.50
2018-04-13T02:06:20.201Z,11.40
2018-04-13T02:08:48.562Z,11.50
2018-04-13T02:11:16.981Z,11.50
2018-04-13T02:13:46.121Z,11.50
2018-04-13T02:16:15.258Z,11.50
2018-04-13T02:18:44.408Z,11.50
2018-04-13T02:21:12.779Z,11.50
2018-04-13T02:23:41.166Z,11.60
2018-04-13T02:26:09.564Z,11.60
2018-04-13T02:28:37.961Z,11.40
2018-04-13T02:31:06.414Z,11.40
2018-04-13T02:33:34.811Z,11.40
2018-04-13T02:36:03.192Z,11.40
2018-04-13T02:38:31.663Z,11.40
2018-04-13T02:41:00.210Z,11.40
2018-04-13T02:43:28.654Z,11.40
2018-04-13T02:45:57.850Z,11.50
2018-04-13T02:48:26.989Z,11.50
2018-04-13T02:50:55.382Z,11.50
2018-04-13T02:53:23.738Z,11.60
2018-04-13T02:55:52.149Z,11.40
2018-04-13T02:58:20.497Z,11.10
2018-04-13T03:00:48.885Z,11.00
2018-04-13T03:03:17.270Z,10.80
2018-04-13T03:05:45.671Z,10.60
2018-04-13T03:08:14.040Z,10.40
2018-04-13T03:10:42.394Z,10.20
2018-04-13T03:13:10.778Z,10.20
2018-04-13T03:15:39.183Z,10.10
2018-04-13T03:18:07.562Z,10.10
2018-04-13T03:20:35.961Z,10.10
2018-04-13T03:23:05.379Z,10.40
2018-04-13T03:25:33.775Z,10.30
2018-04-13T03:28:02.154Z,10.30
2018-04-13T03:30:30.544Z,10.10
2018-04-13T03:32:58.907Z,10.10
2018-04-13T03:35:27.546Z,10.20
2018-04-13T03:37:56.695Z,10.30
2018-04-13T03:40:25.065Z,10.30
2018-04-13T03:42:53.445Z,10.50
2018-04-13T03:45:21.818Z,10.30
2018-04-13T03:47:50.201Z,10.10
2018-04-13T03:50:18.562Z,10.10
2018-04-13T03:52:47.042Z,10.10
2018-04-13T03:55:15.543Z,10.00
2018-04-13T03:57:44.082Z,10.00
2018-04-13T04:00:13.255Z,10.00
2018-04-13T04:02:41.651Z,10.00
2018-04-13T04:05:10.803Z,10.00
2018-04-13T04:07:39.214Z,10.00
2018-04-13T04:10:08.330Z,10.00
2018-04-13T04:12:36.694Z,10.00
2018-04-13T04:15:05.856Z,9.80
2018-04-13T04:17:34.222Z,9.80
2018-04-13T04:20:14.609Z,9.90
2018-04-13T04:22:54.702Z,10.00
2018-04-13T04:38:52.025Z,10.40
2018-04-13T04:41:21.166Z,10.30
2018-04-13T04:43:49.579Z,10.50
2018-04-13T04:46:17.943Z,10.40
2018-04-13T04:48:46.340Z,10.40
2018-04-13T04:51:14.817Z,10.50
2018-04-13T04:53:43.199Z,10.60
2018-04-13T04:56:11.748Z,10.60
2018-04-13T04:58:40.147Z,10.60
2018-04-13T05:01:08.521Z,10.50
2018-04-13T05:03:37.254Z,10.60
2018-04-13T05:06:05.696Z,10.80
2018-04-13T05:08:34.067Z,10.80
2018-04-13T05:11:02.453Z,10.90
2018-04-13T05:13:30.818Z,11.00
2018-04-13T05:15:59.211Z,11.00
2018-04-13T05:18:27.574Z,11.00
2018-04-13T05:20:55.968Z,11.00
2018-04-13T05:23:24.358Z,11.10
2018-04-13T05:25:53.619Z,11.00
2018-04-13T05:28:22.006Z,11.00
2018-04-13T05:30:50.395Z,10.90
2018-04-13T05:33:18.775Z,10.90
2018-04-13T05:35:47.153Z,11.00
2018-04-13T05:38:15.768Z,11.00
2018-04-13T05:40:44.170Z,11.00
2018-04-13T05:43:12.771Z,10.90
2018-04-13T05:45:41.542Z,10.90
2018-04-13T05:48:09.937Z,11.10
2018-04-13T05:50:38.286Z,11.10
2018-04-13T05:53:06.658Z,11.10
2018-04-13T05:55:36.134Z,11.10
2018-04-13T05:58:05.328Z,11.10
2018-04-13T06:00:34.933Z,11.10
2018-04-13T06:03:04.155Z,11.20
2018-04-13T06:05:32.526Z,11.20
2018-04-13T06:08:00.910Z,11.20
2018-04-13T06:10:29.533Z,11.20
2018-04-13T06:12:57.906Z,11.20
2018-04-13T06:15:26.303Z,11.40
2018-04-13T06:17:55.846Z,11.70
2018-04-13T06:20:24.614Z,11.70
2018-04-13T06:22:53.830Z,12.10
2018-04-13T06:25:23.006Z,12.30
2018-04-13T06:27:51.447Z,12.30
2018-04-13T06:30:20.682Z,12.50
2018-04-13T06:32:49.711Z,12.40
2018-04-13T06:35:18.082Z,12.50
2018-04-13T06:37:46.461Z,12.60
2018-04-13T06:40:19.944Z,12.70
2018-04-13T06:42:49.367Z,12.80
2018-04-13T06:45:17.883Z,12.80
2018-04-13T06:47:46.266Z,12.80
2018-04-13T06:50:14.629Z,12.80
2018-04-13T06:52:43.008Z,12.80
2018-04-13T06:55:11.533Z,12.80
2018-04-13T06:57:39.932Z,12.80
2018-04-13T07:00:08.299Z,12.90
2018-04-13T07:02:37.534Z,13.10
2018-04-13T07:05:05.919Z,13.10
2018-04-13T07:07:34.303Z,13.00
2018-04-13T07:10:02.675Z,13.00
2018-04-13T07:12:31.062Z,13.10
2018-04-13T07:14:59.472Z,13.10
2018-04-13T07:17:27.905Z,13.10
2018-04-13T07:19:56.301Z,13.20
2018-04-13T07:22:24.682Z,13.10
2018-04-13T07:24:53.049Z,13.20
2018-04-13T07:27:21.463Z,13.30
2018-04-13T07:29:49.836Z,13.30
2018-04-13T07:32:18.636Z,13.40
2018-04-13T07:34:46.645Z,13.40
2018-04-13T07:37:15.466Z,13.40
2018-04-13T07:39:44.364Z,13.30
2018-04-13T07:42:12.778Z,13.40
2018-04-13T07:44:41.163Z,13.30
2018-04-13T07:47:09.595Z,13.40
2018-04-13T07:49:37.974Z,13.50
2018-04-13T07:52:06.376Z,13.40
2018-04-13T07:54:35.592Z,13.40
2018-04-13T07:57:03.999Z,13.30
2018-04-13T07:59:32.376Z,13.50
2018-04-13T08:02:00.979Z,13.50
2018-04-13T08:04:29.431Z,13.40
2018-04-13T08:06:57.823Z,13.30
2018-04-13T08:09:26.373Z,13.30
2018-04-13T08:11:55.643Z,13.30
2018-04-13T08:14:24.080Z,13.20
2018-04-13T08:16:52.570Z,13.20
2018-04-13T08:19:20.949Z,13.30
2018-04-13T08:21:49.332Z,13.40
2018-04-13T08:24:17.734Z,13.30
2018-04-13T08:26:46.102Z,13.20
2018-04-13T08:29:14.510Z,13.30
2018-04-13T08:31:43.846Z,13.20
2018-04-13T08:34:12.326Z,13.20
2018-04-13T08:36:40.615Z,13.20
2018-04-13T08:39:09.166Z,13.10
2018-04-13T08:41:37.557Z,13.10
2018-04-13T08:44:05.949Z,13.10
2018-04-13T08:46:34.323Z,13.30
2018-04-13T08:49:03.000Z,13.40
2018-04-13T08:51:31.224Z,13.40
2018-04-13T08:53:59.655Z,13.40
2018-04-13T08:56:28.766Z,13.50
2018-04-13T08:58:57.192Z,13.50
2018-04-13T09:01:26.335Z,13.60
2018-04-13T09:03:54.741Z,13.50
2018-04-13T09:06:23.164Z,13.50
2018-04-13T09:08:51.504Z,13.50
2018-04-13T09:11:19.920Z,13.40
2018-04-13T09:13:48.375Z,13.50
2018-04-13T09:16:17.595Z,13.60
2018-04-13T09:18:46.345Z,13.60
2018-04-13T09:21:14.802Z,13.60
2018-04-13T09:23:44.022Z,13.70
2018-04-13T09:26:12.398Z,13.70
2018-04-13T09:28:40.790Z,13.70
2018-04-13T09:31:09.918Z,13.70
2018-04-13T09:33:38.316Z,13.70
2018-04-13T09:36:06.683Z,13.70
2018-04-13T09:38:35.072Z,13.70
2018-04-13T09:41:03.458Z,13.60
2018-04-13T09:43:31.927Z,13.50
2018-04-13T09:46:00.356Z,13.40
2018-04-13T09:48:28.759Z,13.40
2018-04-13T09:50:57.201Z,13.40
2018-04-13T09:53:25.610Z,13.40
2018-04-13T09:55:54.008Z,13.50
2018-04-13T09:58:22.411Z,13.40
2018-04-13T10:00:56.483Z,13.40
2018-04-13T10:03:24.885Z,13.30
2018-04-13T10:05:53.271Z,13.20
2018-04-13T10:08:21.667Z,13.20
2018-04-13T10:10:50.042Z,13.30
2018-04-13T10:13:18.398Z,13.40
2018-04-13T10:15:47.023Z,13.40
2018-04-13T10:18:15.495Z,13.40
2018-04-13T10:20:43.854Z,13.40
2018-04-13T10:23:13.187Z,13.50
2018-04-13T10:25:41.552Z,13.50
2018-04-13T10:28:12.418Z,13.50
2018-04-13T10:30:40.776Z,13.50
2018-04-13T10:33:09.163Z,13.30
2018-04-13T10:35:38.440Z,13.30
2018-04-13T10:38:06.837Z,13.30
2018-04-13T10:40:36.003Z,13.20
2018-04-13T10:43:04.818Z,13.20
2018-04-13T10:45:33.155Z,13.20
2018-04-13T10:48:02.211Z,13.30
2018-04-13T10:50:30.592Z,13.30
2018-04-13T10:52:58.958Z,13.20
2018-04-13T10:55:28.105Z,13.30
2018-04-13T10:57:56.587Z,13.20
2018-04-13T11:00:25.006Z,13.20
2018-04-13T11:02:54.155Z,13.30
2018-04-13T11:05:22.768Z,13.30
2018-04-13T11:07:51.171Z,13.20
2018-04-13T11:10:19.680Z,13.20
2018-04-13T11:12:48.210Z,13.10
2018-04-13T11:15:16.616Z,13.10
2018-04-13T11:17:45.117Z,13.10
2018-04-13T11:20:13.486Z,13.10
2018-04-13T11:22:42.152Z,13.10
2018-04-13T11:25:11.310Z,13.10
2018-04-13T11:27:39.774Z,13.10
2018-04-13T11:30:08.164Z,13.20
2018-04-13T11:32:37.298Z,13.20
2018-04-13T11:35:06.452Z,13.30
2018-04-13T11:37:34.836Z,13.20
2018-04-13T11:40:03.243Z,13.20
2018-04-13T11:42:31.598Z,13.30
2018-04-13T11:45:00.606Z,13.30
2018-04-13T11:47:29.737Z,13.20
2018-04-13T11:49:58.674Z,13.30
2018-04-13T11:52:27.856Z,13.40
2018-04-13T11:54:56.229Z,13.40
2018-04-13T11:57:24.586Z,13.50
2018-04-13T11:59:53.242Z,13.60
2018-04-13T12:02:22.387Z,13.50
2018-04-13T12:04:50.770Z,13.50
2018-04-13T12:07:19.152Z,13.60
2018-04-13T12:09:49.271Z,13.60
2018-04-13T12:12:17.754Z,13.60
2018-04-13T12:14:46.329Z,13.50
2018-04-13T12:17:14.705Z,13.60
2018-04-13T12:19:43.091Z,13.70
2018-04-13T12:22:11.573Z,13.70
2018-04-13T12:24:39.967Z,13.70
2018-04-13T12:27:08.382Z,13.70
2018-04-13T12:29:37.066Z,13.60
2018-04-13T12:32:05.658Z,13.50
2018-04-13T12:34:34.064Z,13.50
2018-04-13T12:37:03.289Z,13.50
2018-04-13T12:39:31.702Z,13.50
2018-04-13T12:42:00.062Z,13.50
2018-04-13T12:44:29.258Z,13.50
2018-04-13T12:46:58.402Z,13.60
2018-04-13T12:49:26.820Z,13.60
2018-04-13T12:51:55.180Z,13.60
2018-04-13T12:54:23.824Z,13.50
2018-04-13T12:56:52.248Z,13.50
2018-04-13T12:59:21.616Z,13.30
2018-04-13T13:01:50.046Z,13.30
2018-04-13T13:04:18.434Z,13.30
2018-04-13T13:06:47.633Z,13.40
2018-04-13T13:09:16.824Z,13.40
2018-04-13T13:11:45.291Z,13.40
2018-04-13T13:14:15.359Z,13.40
2018-04-13T13:16:43.753Z,13.40
2018-04-13T13:19:12.129Z,13.50
2018-04-13T13:21:40.526Z,13.40
2018-04-13T13:24:08.932Z,13.40
2018-04-13T13:26:38.090Z,13.40
2018-04-13T13:29:06.537Z,13.40
2018-04-13T13:31:35.681Z,13.40
2018-04-13T13:34:04.148Z,13.40
2018-04-13T13:36:32.538Z,13.50
2018-04-13T13:39:00.911Z,13.50
2018-04-13T13:41:29.420Z,13.60
2018-04-13T13:43:57.814Z,13.50
2018-04-13T13:46:26.959Z,13.50
2018-04-13T13:48:55.445Z,13.40
2018-04-13T13:51:23.945Z,13.40
2018-04-13T13:53:52.355Z,13.20
2018-04-13T13:56:21.530Z,13.00
2018-04-13T13:58:49.964Z,13.00
2018-04-13T14:01:18.756Z,12.90
2018-04-13T14:03:47.908Z,13.00
2018-04-13T14:06:17.102Z,13.00
2018-04-13T14:08:46.300Z,13.00
2018-04-13T14:11:15.552Z,12.90
2018-04-13T14:13:43.990Z,12.90
2018-04-13T14:16:12.506Z,12.90
2018-04-13T14:18:40.941Z,12.80
2018-04-13T14:21:10.165Z,12.80
2018-04-13T14:23:38.591Z,12.80
2018-04-13T14:26:06.962Z,12.90
2018-04-13T14:28:35.393Z,12.90
2018-04-13T14:31:03.789Z,13.00
2018-04-13T14:33:32.207Z,13.10
2018-04-13T14:36:00.664Z,13.10
2018-04-13T14:38:29.049Z,13.10
2018-04-13T14:40:57.423Z,13.10
2018-04-13T14:43:26.570Z,13.30
2018-04-13T14:45:55.016Z,13.30
2018-04-13T14:48:23.376Z,13.20
2018-04-13T14:50:51.844Z,13.20
2018-04-13T14:53:20.195Z,13.20
2018-04-13T14:55:48.598Z,13.30
2018-04-13T14:58:16.974Z,13.20
2018-04-13T15:00:45.395Z,13.20
2018-04-13T15:03:14.186Z,13.20
2018-04-13T15:05:43.358Z,13.20
2018-04-13T15:08:11.740Z,13.20
2018-04-13T15:10:40.108Z,13.20
2018-04-13T15:13:08.526Z,13.10
2018-04-13T15:15:37.671Z,13.30
2018-04-13T15:18:06.129Z,13.40
2018-04-13T15:20:34.522Z,13.30
2018-04-13T15:23:03.056Z,13.40
2018-04-13T15:25:32.250Z,13.40
2018-04-13T15:28:01.590Z,13.50
2018-04-13T15:30:30.067Z,13.50
2018-04-13T15:32:59.035Z,13.50
2018-04-13T15:35:27.484Z,13.60
2018-04-13T15:37:55.858Z,13.60
2018-04-13T15:40:24.245Z,13.60
2018-04-13T15:42:53.410Z,13.50
2018-04-13T15:45:21.815Z,13.60
2018-04-13T15:47:50.220Z,13.60
2018-04-13T15:50:19.798Z,13.70
2018-04-13T15:52:48.768Z,13.70
2018-04-13T15:55:17.146Z,13.70
2018-04-13T15:57:45.519Z,13.70
2018-04-13T16:00:13.899Z,13.80
2018-04-13T16:02:42.422Z,13.90
2018-04-13T16:05:10.867Z,13.90
2018-04-13T16:07:39.364Z,13.90
2018-04-13T16:10:07.743Z,13.90
2018-04-13T16:14:57.340Z,13.90
2018-04-13T16:17:25.766Z,13.90
2018-04-13T16:19:54.440Z,14.00
2018-04-13T16:22:22.827Z,14.00
2018-04-13T16:24:51.294Z,14.10
2018-04-13T16:27:19.713Z,14.10
2018-04-13T16:29:48.239Z,14.10
2018-04-13T16:32:17.385Z,14.20
2018-04-13T16:34:45.973Z,14.10
2018-04-13T16:37:14.439Z,14.20
2018-04-13T16:39:43.347Z,14.20
2018-04-13T16:42:11.793Z,14.20
2018-04-13T16:44:40.286Z,14.20
2018-04-13T16:47:08.678Z,14.20
2018-04-13T16:49:37.679Z,14.20
2018-04-13T16:52:06.040Z,14.20
2018-04-13T16:54:35.013Z,14.30
2018-04-13T16:57:03.506Z,14.30
2018-04-13T16:59:31.920Z,14.30
2018-04-13T17:02:00.424Z,14.40
2018-04-13T17:04:29.660Z,14.40
2018-04-13T17:06:58.139Z,14.30
2018-04-13T17:09:26.577Z,14.40
2018-04-13T17:11:55.730Z,14.40
2018-04-13T17:14:24.183Z,14.40
2018-04-13T17:16:54.807Z,14.40
2018-04-13T17:19:23.302Z,14.40
2018-04-13T17:21:51.702Z,14.40
2018-04-13T17:24:20.121Z,14.40
2018-04-13T17:26:49.164Z,14.40
2018-04-13T17:29:17.608Z,14.40
2018-04-13T17:31:45.958Z,14.40
2018-04-13T17:34:14.337Z,14.30
2018-04-13T17:36:42.738Z,14.30
2018-04-13T17:39:11.362Z,14.20
2018-04-13T17:41:39.894Z,14.20
2018-04-13T17:44:09.047Z,14.20
2018-04-13T17:46:37.452Z,14.20
2018-04-13T17:49:05.821Z,14.20
2018-04-13T17:51:34.334Z,14.10
2018-04-13T17:54:03.463Z,14.10
2018-04-13T17:56:31.882Z,14.10
2018-04-13T17:59:00.267Z,14.10
2018-04-13T18:01:29.063Z,14.10
2018-04-13T18:03:58.204Z,14.10
2018-04-13T18:06:26.617Z,14.00
2018-04-13T18:08:55.019Z,14.10
2018-04-13T18:11:24.216Z,13.90
2018-04-13T18:13:53.385Z,13.90
2018-04-13T18:16:21.862Z,13.90
2018-04-13T18:18:50.259Z,13.90
2018-04-13T18:21:19.424Z,13.80
2018-04-13T18:23:47.807Z,13.80
2018-04-13T18:26:16.214Z,13.80
2018-04-13T18:28:45.439Z,13.70
2018-04-13T18:31:14.291Z,13.70
2018-04-13T18:33:42.728Z,13.60
2018-04-13T18:36:11.850Z,13.50
2018-04-13T18:38:40.975Z,13.50
2018-04-13T18:41:10.187Z,13.50
2018-04-13T18:43:39.371Z,13.50
2018-04-13T18:46:08.549Z,13.40
2018-04-13T18:48:36.916Z,13.40
2018-04-13T18:51:05.315Z,13.40
2018-04-13T18:53:34.459Z,13.30
2018-04-13T18:56:02.901Z,13.30
2018-04-13T18:58:31.278Z,13.20
2018-04-13T19:01:00.475Z,13.20
2018-04-13T19:03:28.871Z,13.20
2018-04-13T19:05:58.018Z,13.20
2018-04-13T19:08:26.385Z,13.20
2018-04-13T19:10:54.872Z,13.20
2018-04-13T19:13:23.542Z,13.20
2018-04-13T19:15:51.954Z,13.10
2018-04-13T19:18:20.312Z,13.10
2018-04-13T19:20:48.709Z,13.10
2018-04-13T19:23:17.277Z,13.10
2018-04-13T19:25:45.702Z,13.00
2018-04-13T19:28:14.137Z,13.10
2018-04-13T19:30:42.873Z,13.00
2018-04-13T19:33:12.030Z,13.00
2018-04-13T19:35:40.420Z,13.00
2018-04-13T19:38:09.615Z,13.00
2018-04-13T19:40:37.986Z,13.00
2018-04-13T19:43:06.406Z,13.00
2018-04-13T19:45:34.831Z,13.10
2018-04-13T19:48:08.784Z,13.10
2018-04-13T19:50:37.203Z,13.10
2018-04-13T19:53:05.380Z,13.10
2018-04-13T19:55:34.776Z,13.10
2018-04-13T19:58:03.233Z,13.10
2018-04-13T20:00:31.657Z,13.30
2018-04-13T20:03:00.077Z,13.10
2018-04-13T20:05:29.237Z,13.10
2018-04-13T20:07:58.299Z,13.10
2018-04-13T20:10:26.670Z,13.10
2018-04-13T20:12:55.065Z,13.10
2018-04-13T20:15:25.410Z,13.00
2018-04-13T20:17:53.803Z,12.80
2018-04-13T20:20:23.009Z,12.80
2018-04-13T20:22:52.158Z,12.70
2018-04-13T20:25:20.604Z,12.60
2018-04-13T20:27:50.040Z,12.50
2018-04-13T20:30:18.422Z,12.50
2018-04-13T20:32:46.826Z,12.50
2018-04-13T20:35:17.131Z,12.60
2018-04-13T20:37:45.548Z,12.50
2018-04-13T20:40:14.700Z,12.50
2018-04-13T20:42:43.163Z,12.50
2018-04-13T20:45:11.547Z,12.50
2018-04-13T20:47:39.975Z,12.40
2018-04-13T20:50:09.119Z,12.40
2018-04-13T20:52:37.855Z,12.40
2018-04-13T20:55:06.998Z,12.30
2018-04-13T20:57:35.724Z,12.30
2018-04-13T21:00:04.092Z,12.30
2018-04-13T21:02:32.800Z,12.30
2018-04-13T21:05:01.819Z,12.20
2018-04-13T21:07:30.565Z,12.30
2018-04-13T21:09:58.956Z,12.30
2018-04-13T21:12:28.118Z,12.30
2018-04-13T21:14:56.697Z,12.30
2018-04-13T21:17:25.122Z,12.40
2018-04-13T21:19:54.338Z,12.40
2018-04-13T21:22:22.711Z,12.40
2018-04-13T21:24:51.280Z,12.40
2018-04-13T21:27:19.676Z,12.40
2018-04-13T21:29:48.043Z,12.40
2018-04-13T21:32:16.557Z,12.30
2018-04-13T21:34:45.016Z,12.30
2018-04-13T21:37:13.638Z,12.30
2018-04-13T21:39:42.044Z,12.30
2018-04-13T21:42:10.447Z,12.30
2018-04-13T21:44:39.629Z,12.30
2018-04-13T21:47:11.883Z,12.40
2018-04-13T21:49:40.266Z,12.40
2018-04-13T21:52:09.412Z,12.40
2018-04-13T21:54:37.944Z,12.40
2018-04-13T21:57:07.118Z,12.40
2018-04-13T21:59:35.823Z,12.30
2018-04-13T22:02:04.964Z,12.20
2018-04-13T22:04:33.605Z,12.20
2018-04-13T22:07:02.047Z,12.10
2018-04-13T22:09:30.430Z,12.10
2018-04-13T22:11:58.790Z,12.10
2018-04-13T22:14:51.842Z,12.10
2018-04-13T22:17:20.219Z,12.10
2018-04-13T22:19:49.632Z,12.00
2018-04-13T22:22:18.026Z,12.00
2018-04-13T22:24:46.424Z,12.00
2018-04-13T22:27:14.824Z,12.00
2018-04-13T22:29:44.038Z,12.00
2018-04-13T22:32:12.405Z,11.90
2018-04-13T22:34:40.889Z,12.00
2018-04-13T22:37:09.705Z,11.90
2018-04-13T22:39:38.105Z,11.90
2018-04-13T22:42:06.470Z,11.90
2018-04-13T22:44:34.983Z,11.80
2018-04-13T22:47:03.377Z,11.70
2018-04-13T22:49:32.818Z,11.60
2018-04-13T22:52:01.209Z,11.60
2018-04-13T22:54:29.677Z,11.40
2018-04-13T22:56:58.182Z,11.30
2018-04-13T22:59:26.766Z,11.30
2018-04-13T23:01:55.153Z,11.20
2018-04-13T23:04:23.536Z,11.20
2018-04-13T23:06:51.940Z,11.20
2018-04-13T23:09:20.343Z,11.20
2018-04-13T23:11:48.853Z,11.10
2018-04-13T23:14:17.215Z,11.00
2018-04-13T23:16:45.597Z,10.80
2018-04-13T23:19:14.050Z,10.70
2018-04-13T23:21:42.441Z,10.50
2018-04-13T23:24:11.038Z,10.60
2018-04-13T23:26:39.422Z,10.60
2018-04-13T23:29:07.785Z,10.70
2018-04-13T23:31:36.973Z,10.80
2018-04-13T23:34:05.915Z,10.70
2018-04-13T23:36:34.301Z,10.80
2018-04-13T23:39:02.672Z,10.80
2018-04-13T23:41:31.050Z,10.80
2018-04-13T23:43:59.582Z,10.80
2018-04-13T23:46:29.711Z,10.80
2018-04-13T23:48:58.191Z,10.80
2018-04-13T23:51:26.547Z,10.80
2018-04-13T23:53:55.212Z,10.70
2018-04-13T23:56:24.371Z,10.50
2018-04-13T23:58:52.764Z,10.50
